createdAt,value
2022-08-01T00:00:21.273Z,99392.25
2022-08-01T00:03:13.162Z,99389.59
2022-08-01T00:05:48.002Z,99382.36
2022-08-01T00:08:20.933Z,99382.16
2022-08-01T00:10:51.297Z,99380.71
2022-08-01T00:13:24.609Z,99376.91
2022-08-01T00:16:12.636Z,99374.14
2022-08-01T00:18:42.782Z,99372.92
2022-08-01T00:21:15.948Z,99372.13
2022-08-01T00:23:48.736Z,99373.83
2022-08-01T00:26:16.130Z,99371.88
2022-08-01T00:29:48.783Z,99371.04
2022-08-01T00:32:22.762Z,99368.35
2022-08-01T00:34:50.600Z,99366.63
2022-08-01T00:37:20.755Z,99364.92
2022-08-01T00:39:59.063Z,99361.95
2022-08-01T00:42:59.597Z,99359.27
2022-08-01T00:45:32.480Z,99357.50
2022-08-01T00:48:15.133Z,99357.85
2022-08-01T00:50:47.353Z,99355.61
2022-08-01T00:53:28.112Z,99354.48
2022-08-01T00:56:15.325Z,99350.77
2022-08-01T00:58:46.125Z,99351.05
2022-08-01T01:01:20.211Z,99350.92
2022-08-01T01:03:59.988Z,99349.52
2022-08-01T01:06:53.612Z,99352.91
2022-08-01T01:09:53.468Z,99358.22
2022-08-01T01:12:38.488Z,99355.05
2022-08-01T01:15:16.202Z,99354.34
2022-08-01T01:18:13.016Z,99347.20
2022-08-01T01:20:43.926Z,99342.18
2022-08-01T01:23:48.891Z,99344.40
2022-08-01T01:26:42.478Z,99341.50
2022-08-01T01:29:22.148Z,99341.16
2022-08-01T01:31:56.914Z,99341.64
2022-08-01T01:34:34.082Z,99342.81
2022-08-01T01:37:22.842Z,99344.67
2022-08-01T01:40:05.642Z,99340.39
2022-08-01T01:42:59.790Z,99337.89
2022-08-01T01:45:37.379Z,99336.93
2022-08-01T01:48:06.167Z,99334.66
2022-08-01T01:51:01.407Z,99336.29
2022-08-01T01:53:33.959Z,99338.20
2022-08-01T01:56:15.675Z,99336.66
2022-08-01T01:58:47.271Z,99340.74
2022-08-01T02:02:08.729Z,99340.94
2022-08-01T02:04:23.183Z,99341.73
2022-08-01T02:06:54.338Z,99338.98
2022-08-01T02:09:41.647Z,99334.92
2022-08-01T02:12:25.101Z,99335.35
2022-08-01T02:14:56.691Z,99335.44
2022-08-01T02:17:34.202Z,99339.84
2022-08-01T02:20:09.822Z,99337.23
2022-08-01T02:23:20.031Z,99336.90
2022-08-01T02:26:11.075Z,99336.21
2022-08-01T02:28:48.640Z,99332.56
2022-08-01T02:31:22.497Z,99334.16
2022-08-01T02:34:05.487Z,99324.96
2022-08-01T02:36:44.829Z,99327.64
2022-08-01T02:39:16.921Z,99324.36
2022-08-01T02:41:49.051Z,99319.00
2022-08-01T02:44:32.328Z,99318.33
2022-08-01T02:47:05.279Z,99315.58
2022-08-01T02:49:46.718Z,99319.41
2022-08-01T02:52:47.373Z,99322.98
2022-08-01T02:55:52.045Z,99323.57
2022-08-01T02:58:40.654Z,99322.77
2022-08-01T03:01:30.872Z,99326.59
2022-08-01T03:04:23.532Z,99329.38
2022-08-01T03:06:59.058Z,99332.98
2022-08-01T03:09:39.166Z,99337.66
2022-08-01T03:12:14.359Z,99333.89
2022-08-01T03:14:48.699Z,99339.56
2022-08-01T03:17:27.953Z,99336.98
2022-08-01T03:20:14.661Z,99336.89
2022-08-01T03:23:38.106Z,99338.35
2022-08-01T03:26:19.788Z,99337.60
2022-08-01T03:28:59.093Z,99332.31
2022-08-01T03:31:30.960Z,99333.92
2022-08-01T03:34:23.626Z,99334.45
2022-08-01T03:37:33.412Z,99333.85
2022-08-01T03:40:16.616Z,99339.56
2022-08-01T03:43:04.567Z,99335.97
2022-08-01T03:45:58.482Z,99339.79
2022-08-01T03:48:34.862Z,99339.81
2022-08-01T03:51:21.909Z,99342.13
2022-08-01T03:54:17.602Z,99342.80
2022-08-01T03:57:35.758Z,99345.29
2022-08-01T04:01:00.789Z,99347.48
2022-08-01T04:03:44.028Z,99352.20
2022-08-01T04:06:23.464Z,99351.23
2022-08-01T04:09:18.103Z,99356.83
2022-08-01T04:11:56.796Z,99351.80
2022-08-01T04:14:31.968Z,99357.69
2022-08-01T04:17:05.379Z,99358.23
2022-08-01T04:19:48.127Z,99365.38
2022-08-01T04:22:51.601Z,99367.15
2022-08-01T04:25:50.904Z,99375.21
2022-08-01T04:29:07.478Z,99374.70
2022-08-01T04:32:43.365Z,99373.94
2022-08-01T04:36:25.382Z,99377.83
2022-08-01T04:39:50.130Z,99382.27
2022-08-01T04:44:34.795Z,99379.58
2022-08-01T04:46:56.525Z,99377.48
2022-08-01T04:50:46.293Z,99376.94
2022-08-01T04:54:04.919Z,99380.17
2022-08-01T04:57:55.570Z,99385.95
2022-08-01T05:01:17.688Z,99383.12
2022-08-01T05:04:24.711Z,99388.04
2022-08-01T05:07:33.908Z,99389.60
2022-08-01T05:11:27.775Z,99390.33
2022-08-01T05:15:06.354Z,99394.25
2022-08-01T05:17:56.481Z,99396.05
2022-08-01T05:20:44.350Z,99395.87
2022-08-01T05:23:42.457Z,99397.10
2022-08-01T05:26:40.657Z,99394.29
2022-08-01T05:29:44.398Z,99393.94
2022-08-01T05:32:37.194Z,99398.33
2022-08-01T05:35:22.806Z,99401.96
2022-08-01T05:38:46.803Z,99402.55
2022-08-01T05:41:28.392Z,99400.05
2022-08-01T05:44:41.238Z,99402.56
2022-08-01T05:47:19.444Z,99405.89
2022-08-01T05:50:02.435Z,99406.98
2022-08-01T05:52:44.733Z,99399.27
2022-08-01T05:55:18.870Z,99400.63
2022-08-01T05:57:57.706Z,99402.09
2022-08-01T06:00:25.356Z,99405.64
2022-08-01T06:35:46.357Z,99419.29
2022-08-01T06:39:27.138Z,99419.90
2022-08-01T06:42:30.857Z,99425.05
2022-08-01T06:45:39.842Z,99427.70
2022-08-01T06:48:54.544Z,99426.70
2022-08-01T06:52:06.169Z,99429.05
2022-08-01T06:59:22.122Z,99431.16
2022-08-01T07:02:32.124Z,99427.89
2022-08-01T07:05:19.697Z,99428.08
2022-08-01T07:08:32.761Z,99431.31
2022-08-01T07:12:03.952Z,99428.73
2022-08-01T07:15:01.761Z,99424.45
2022-08-01T07:18:30.753Z,99421.52
2022-08-01T07:26:53.472Z,99418.45
2022-08-01T07:30:50.324Z,99418.39
2022-08-01T07:35:14.258Z,99425.02
2022-08-01T07:39:05.580Z,99425.74
2022-08-01T07:42:44.338Z,99424.36
2022-08-01T07:46:37.700Z,99433.48
2022-08-01T07:50:41.236Z,99431.27
2022-08-01T07:53:11.291Z,99426.35
2022-08-01T07:55:40.151Z,99426.80
2022-08-01T07:58:09.498Z,99428.93
2022-08-01T08:00:54.529Z,99424.89
2022-08-01T08:03:31.638Z,99431.01
2022-08-01T08:06:28.863Z,99431.16
2022-08-01T08:09:02.798Z,99435.45
2022-08-01T08:11:38.827Z,99433.09
2022-08-01T08:14:08.303Z,99432.13
2022-08-01T08:16:38.170Z,99424.55
2022-08-01T08:19:08.269Z,99428.13
2022-08-01T08:21:39.821Z,99429.33
2022-08-01T08:24:26.193Z,99425.38
2022-08-01T08:27:00.172Z,99434.23
2022-08-01T08:29:30.268Z,99429.63
2022-08-01T08:32:01.159Z,99431.61
2022-08-01T08:34:31.295Z,99436.23
2022-08-01T08:36:59.739Z,99436.51
2022-08-01T08:39:27.574Z,99443.95
2022-08-01T08:42:02.468Z,99445.16
2022-08-01T08:44:30.239Z,99444.14
2022-08-01T08:47:00.355Z,99445.45
2022-08-01T08:49:35.618Z,99442.77
2022-08-01T08:52:04.927Z,99441.68
2022-08-01T08:54:35.927Z,99440.71
2022-08-01T08:57:04.311Z,99444.00
2022-08-01T08:59:34.612Z,99449.18
2022-08-01T09:02:11.765Z,99450.61
2022-08-01T09:04:43.658Z,99458.70
2022-08-01T09:07:12.313Z,99460.89
2022-08-01T09:09:42.956Z,99459.71
2022-08-01T09:12:11.409Z,99456.90
2022-08-01T09:14:46.273Z,99464.01
2022-08-01T09:17:13.376Z,99464.79
2022-08-01T09:20:14.456Z,99468.96
2022-08-01T09:22:47.955Z,99466.73
2022-08-01T09:25:15.163Z,99465.23
2022-08-01T09:27:44.506Z,99464.26
2022-08-01T09:30:26.052Z,99463.95
2022-08-01T09:33:11.180Z,99461.19
2022-08-01T09:35:56.825Z,99458.27
2022-08-01T09:38:29.466Z,99459.16
2022-08-01T09:41:01.407Z,99463.08
2022-08-01T09:43:32.608Z,99464.77
2022-08-01T09:46:07.593Z,99467.12
2022-08-01T09:49:00.094Z,99467.56
2022-08-01T09:51:58.427Z,99472.54
2022-08-01T09:54:51.657Z,99474.80
2022-08-01T09:57:20.498Z,99475.84
2022-08-01T09:59:59.978Z,99478.59
2022-08-01T10:02:38.617Z,99484.84
2022-08-01T10:05:20.778Z,99487.58
2022-08-01T10:08:08.788Z,99486.84
2022-08-01T10:11:12.195Z,99484.79
2022-08-01T10:13:40.983Z,99488.94
2022-08-01T10:16:13.591Z,99489.40
2022-08-01T10:18:45.808Z,99488.62
2022-08-01T10:21:15.354Z,99488.77
2022-08-01T10:23:46.059Z,99493.23
2022-08-01T10:26:18.107Z,99492.06
2022-08-01T10:28:48.902Z,99492.38
2022-08-01T10:31:17.258Z,99490.32
2022-08-01T10:33:53.616Z,99497.16
2022-08-01T10:36:22.650Z,99497.21
2022-08-01T10:38:50.674Z,99496.65
2022-08-01T10:41:23.107Z,99494.66
2022-08-01T10:43:52.181Z,99496.30
2022-08-01T10:46:25.823Z,99495.20
2022-08-01T10:49:03.927Z,99498.92
2022-08-01T10:51:52.331Z,99500.63
2022-08-01T10:54:25.989Z,99498.63
2022-08-01T10:56:54.202Z,99500.64
2022-08-01T10:59:50.135Z,99497.33
2022-08-01T11:02:33.944Z,99496.85
2022-08-01T11:05:35.437Z,99498.95
2022-08-01T11:08:23.655Z,99494.11
2022-08-01T11:11:10.731Z,99492.85
2022-08-01T11:14:25.954Z,99490.89
2022-08-01T11:16:53.628Z,99489.79
2022-08-01T11:19:22.160Z,99496.21
2022-08-01T11:21:58.630Z,99497.65
2022-08-01T11:25:07.014Z,99496.25
2022-08-01T11:27:45.983Z,99492.34
2022-08-01T11:30:23.001Z,99492.30
2022-08-01T11:33:11.420Z,99494.79
2022-08-01T11:36:10.984Z,99489.60
2022-08-01T11:39:01.407Z,99491.75
2022-08-01T11:41:37.068Z,99494.44
2022-08-01T11:44:12.672Z,99485.86
2022-08-01T11:47:07.884Z,99488.27
2022-08-01T11:49:49.141Z,99486.35
2022-08-01T11:52:24.094Z,99487.09
2022-08-01T11:54:57.698Z,99484.91
2022-08-01T11:57:35.697Z,99488.38
2022-08-01T12:00:15.376Z,99483.59
2022-08-01T12:02:56.804Z,99481.41
2022-08-01T12:05:37.650Z,99482.75
2022-08-01T12:08:31.475Z,99482.11
2022-08-01T12:11:02.041Z,99476.80
2022-08-01T12:13:43.606Z,99476.77
2022-08-01T12:16:12.987Z,99482.61
2022-08-01T12:18:46.600Z,99476.44
2022-08-01T12:21:13.877Z,99481.34
2022-08-01T12:24:01.139Z,99486.30
2022-08-01T12:26:43.382Z,99486.46
2022-08-01T12:29:13.446Z,99487.16
2022-08-01T12:31:44.054Z,99493.45
2022-08-01T12:34:30.079Z,99491.34
2022-08-01T12:37:03.818Z,99500.70
2022-08-01T12:39:34.603Z,99506.36
2022-08-01T12:42:02.067Z,99516.97
2022-08-01T12:44:31.298Z,99522.23
2022-08-01T12:46:59.711Z,99537.69
2022-08-01T12:49:30.033Z,99544.69
2022-08-01T12:51:57.793Z,99550.30
2022-08-01T12:54:25.902Z,99548.77
2022-08-01T12:57:06.293Z,99554.95
2022-08-01T12:59:33.352Z,99555.23
2022-08-01T13:02:09.574Z,99556.33
2022-08-01T13:04:54.092Z,99566.45
2022-08-01T13:07:21.499Z,99570.04
2022-08-01T13:10:03.562Z,99575.00
2022-08-01T13:12:32.469Z,99572.38
2022-08-01T13:15:17.640Z,99574.86
2022-08-01T13:17:44.885Z,99578.41
2022-08-01T13:20:22.585Z,99578.83
2022-08-01T13:22:51.206Z,99580.89
2022-08-01T13:25:22.431Z,99584.25
2022-08-01T13:28:31.216Z,99584.52
2022-08-01T13:31:27.126Z,99590.77
2022-08-01T13:34:10.491Z,99589.41
2022-08-01T13:36:50.860Z,99594.05
2022-08-01T13:39:40.159Z,99594.56
2022-08-01T13:42:11.801Z,99592.52
2022-08-01T13:44:50.795Z,99594.11
2022-08-01T13:47:31.121Z,99596.39
2022-08-01T13:50:03.220Z,99598.02
2022-08-01T13:52:35.408Z,99597.08
2022-08-01T13:55:02.962Z,99602.30
2022-08-01T13:58:00.338Z,99607.98
2022-08-01T14:00:36.004Z,99607.48
2022-08-01T14:03:04.311Z,99608.65
2022-08-01T14:05:36.516Z,99606.88
2022-08-01T14:08:04.135Z,99609.79
2022-08-01T14:10:32.135Z,99608.48
2022-08-01T14:13:29.703Z,99612.27
2022-08-01T14:16:07.898Z,99617.95
2022-08-01T14:18:35.649Z,99619.85
2022-08-01T14:21:05.976Z,99622.79
2022-08-01T14:23:43.449Z,99625.48
2022-08-01T14:26:18.911Z,99628.98
2022-08-01T14:28:54.562Z,99629.33
2022-08-01T14:31:24.073Z,99628.81
2022-08-01T14:33:51.866Z,99631.34
2022-08-01T14:36:30.655Z,99633.06
2022-08-01T14:39:00.625Z,99636.41
2022-08-01T14:41:30.853Z,99634.48
2022-08-01T14:44:01.613Z,99636.48
2022-08-01T14:46:28.763Z,99636.19
2022-08-01T14:49:08.223Z,99635.98
2022-08-01T14:51:37.659Z,99637.29
2022-08-01T14:54:06.324Z,99641.48
2022-08-01T14:56:35.348Z,99643.59
2022-08-01T14:59:02.615Z,99643.52
2022-08-01T15:01:30.645Z,99640.97
2022-08-01T15:03:57.988Z,99642.13
2022-08-01T15:06:28.761Z,99641.46
2022-08-01T15:08:55.843Z,99641.13
2022-08-01T15:11:23.689Z,99639.05
2022-08-01T15:14:10.789Z,99638.73
2022-08-01T15:16:38.510Z,99638.83
2022-08-01T15:19:05.502Z,99640.70
2022-08-01T15:21:41.714Z,99644.49
2022-08-01T15:24:09.990Z,99646.77
2022-08-01T15:26:46.115Z,99644.55
2022-08-01T15:29:16.899Z,99641.23
2022-08-01T15:31:44.235Z,99641.90
2022-08-01T15:34:11.343Z,99641.91
2022-08-01T15:36:43.579Z,99643.52
2022-08-01T15:39:13.380Z,99646.86
2022-08-01T15:41:41.109Z,99646.95
2022-08-01T15:44:08.634Z,99647.35
2022-08-01T15:46:36.210Z,99644.10
2022-08-01T15:49:09.999Z,99637.39
2022-08-01T15:51:37.651Z,99638.95
2022-08-01T15:54:14.619Z,99638.39
2022-08-01T15:56:42.626Z,99639.73
2022-08-01T15:59:09.939Z,99638.14
2022-08-01T16:01:42.970Z,99637.94
2022-08-01T16:04:15.402Z,99640.21
2022-08-01T16:06:48.674Z,99643.53
2022-08-01T16:09:19.257Z,99640.00
2022-08-01T16:11:50.648Z,99638.98
2022-08-01T16:14:21.265Z,99642.56
2022-08-01T16:16:59.993Z,99638.42
2022-08-01T16:19:29.634Z,99637.46
2022-08-01T16:21:56.590Z,99636.36
2022-08-01T16:24:23.522Z,99633.85
2022-08-01T16:26:50.317Z,99633.69
2022-08-01T16:29:21.077Z,99632.59
2022-08-01T16:32:11.863Z,99635.79
2022-08-01T16:34:35.318Z,99636.13
2022-08-01T16:37:04.475Z,99636.00
2022-08-01T16:39:37.952Z,99637.65
2022-08-01T16:42:05.798Z,99645.23
2022-08-01T16:44:37.572Z,99642.71
2022-08-01T16:47:10.938Z,99641.42
2022-08-01T16:49:50.415Z,99646.48
2022-08-01T16:52:20.314Z,99645.65
2022-08-01T16:54:48.113Z,99648.14
2022-08-01T16:57:16.021Z,99649.88
2022-08-01T16:59:43.326Z,99650.19
2022-08-01T17:02:12.839Z,99650.22
2022-08-01T17:04:39.941Z,99653.41
2022-08-01T17:07:07.504Z,99651.72
2022-08-01T17:09:37.572Z,99655.88
2022-08-01T17:12:22.083Z,99660.35
2022-08-01T17:14:52.875Z,99663.28
2022-08-01T17:17:22.475Z,99663.25
2022-08-01T17:19:51.015Z,99663.98
2022-08-01T17:22:18.780Z,99665.20
2022-08-01T17:24:55.320Z,99670.29
2022-08-01T17:27:23.195Z,99667.80
2022-08-01T17:29:52.932Z,99668.34
2022-08-01T17:32:24.921Z,99671.72
2022-08-01T17:35:02.376Z,99673.63
2022-08-01T17:37:40.721Z,99681.16
2022-08-01T17:40:38.943Z,99683.64
2022-08-01T17:43:06.802Z,99683.73
2022-08-01T17:45:38.063Z,99686.09
2022-08-01T17:48:23.884Z,99688.14
2022-08-01T17:50:51.350Z,99687.00
2022-08-01T17:53:21.453Z,99690.46
2022-08-01T17:55:53.764Z,99687.59
2022-08-01T17:58:36.715Z,99689.98
2022-08-01T18:01:19.167Z,99694.09
2022-08-01T18:03:50.519Z,99691.90
2022-08-01T18:06:23.347Z,99698.57
2022-08-01T18:08:55.319Z,99700.84
2022-08-01T18:11:27.081Z,99697.63
2022-08-01T18:14:06.525Z,99696.58
2022-08-01T18:16:39.375Z,99704.05
2022-08-01T18:19:09.356Z,99705.44
2022-08-01T18:21:41.074Z,99706.79
2022-08-01T18:24:10.184Z,99707.20
2022-08-01T18:26:37.585Z,99706.90
2022-08-01T18:29:16.297Z,99706.67
2022-08-01T18:31:51.307Z,99711.41
2022-08-01T18:34:18.659Z,99712.46
2022-08-01T18:36:45.556Z,99717.07
2022-08-01T18:39:28.067Z,99727.00
2022-08-01T18:42:01.306Z,99727.22
2022-08-01T18:44:29.627Z,99729.27
2022-08-01T18:46:56.846Z,99734.98
2022-08-01T18:49:24.470Z,99739.96
2022-08-01T18:51:53.714Z,99745.07
2022-08-01T18:54:23.390Z,99743.16
2022-08-01T18:56:59.447Z,99741.02
2022-08-01T18:59:41.735Z,99739.88
2022-08-01T19:02:14.996Z,99744.34
2022-08-01T19:04:43.536Z,99745.16
2022-08-01T19:07:53.885Z,99750.39
2022-08-01T19:10:17.750Z,99754.36
2022-08-01T19:12:44.733Z,99761.05
2022-08-01T19:15:13.830Z,99765.55
2022-08-01T19:17:50.208Z,99768.46
2022-08-01T19:20:17.815Z,99771.48
2022-08-01T19:22:50.019Z,99771.70
2022-08-01T19:25:17.608Z,99774.22
2022-08-01T19:27:48.633Z,99774.13
2022-08-01T19:30:17.384Z,99775.78
2022-08-01T19:32:49.638Z,99781.54
2022-08-01T19:35:17.495Z,99781.41
2022-08-01T19:38:14.523Z,99784.64
2022-08-01T19:40:54.721Z,99782.73
2022-08-01T19:43:22.484Z,99784.98
2022-08-01T19:45:58.708Z,99785.88
2022-08-01T19:48:28.324Z,99793.16
2022-08-01T19:50:56.588Z,99792.26
2022-08-01T19:53:25.791Z,99794.80
2022-08-01T19:56:00.717Z,99795.03
2022-08-01T19:58:29.481Z,99790.71
2022-08-01T20:00:56.663Z,99788.71
2022-08-01T20:03:28.811Z,99790.94
2022-08-01T20:06:08.145Z,99793.15
2022-08-01T20:08:38.858Z,99797.90
2022-08-01T20:11:11.918Z,99802.63
2022-08-01T20:13:41.797Z,99805.30
2022-08-01T20:16:22.022Z,99808.05
2022-08-01T20:18:59.868Z,99807.47
2022-08-01T20:21:37.662Z,99806.57
2022-08-01T20:24:12.853Z,99814.22
2022-08-01T20:26:41.062Z,99816.17
2022-08-01T20:29:23.883Z,99815.55
2022-08-01T20:31:53.996Z,99817.02
2022-08-01T20:34:24.075Z,99818.63
2022-08-01T20:36:56.476Z,99817.61
2022-08-01T20:39:26.523Z,99818.38
2022-08-01T20:42:03.816Z,99823.39
2022-08-01T20:44:34.733Z,99829.42
2022-08-01T20:47:04.626Z,99837.75
2022-08-01T20:49:37.051Z,99837.55
2022-08-01T20:52:17.598Z,99835.86
2022-08-01T20:54:50.378Z,99836.02
2022-08-01T20:57:40.485Z,99839.84
2022-08-01T21:00:08.303Z,99837.23
2022-08-01T21:03:04.863Z,99835.41
2022-08-01T21:05:55.513Z,99837.75
2022-08-01T21:08:40.817Z,99842.84
2022-08-01T21:11:15.639Z,99845.80
2022-08-01T21:13:47.541Z,99845.56
2022-08-01T21:16:25.194Z,99844.95
2022-08-01T21:19:20.205Z,99845.15
2022-08-01T21:22:10.424Z,99848.40
2022-08-01T21:25:10.475Z,99853.73
2022-08-01T21:27:39.410Z,99858.99
2022-08-01T21:30:10.896Z,99861.34
2022-08-01T21:32:42.301Z,99863.16
2022-08-01T21:35:18.666Z,99862.44
2022-08-01T21:37:52.519Z,99865.77
2022-08-01T21:40:24.889Z,99867.76
2022-08-01T21:42:53.817Z,99871.30
2022-08-01T21:45:38.332Z,99869.51
2022-08-01T21:48:27.106Z,99870.00
2022-08-01T21:51:24.455Z,99869.79
2022-08-01T21:53:58.450Z,99871.05
2022-08-01T21:56:40.768Z,99872.54
2022-08-01T21:59:42.547Z,99872.32
2022-08-01T22:02:25.009Z,99871.98
2022-08-01T22:05:03.144Z,99872.34
2022-08-01T22:08:14.756Z,99870.08
2022-08-01T22:20:16.456Z,99882.09
2022-08-01T22:32:26.647Z,99882.33
2022-08-01T22:39:23.996Z,99887.23
2022-08-01T22:46:24.976Z,99888.61
2022-08-01T22:53:50.552Z,99893.02
2022-08-01T22:56:37.154Z,99893.54
2022-08-01T23:00:17.948Z,99896.87
2022-08-01T23:03:30.152Z,99897.91
2022-08-01T23:06:37.912Z,99896.45
2022-08-01T23:09:54.361Z,99898.86
2022-08-01T23:13:24.279Z,99899.79
2022-08-01T23:16:36.697Z,99901.17
2022-08-01T23:19:43.859Z,99907.13
2022-08-01T23:22:22.602Z,99908.63
2022-08-01T23:25:15.288Z,99908.81
2022-08-01T23:28:05.229Z,99908.98
2022-08-01T23:33:45.311Z,99914.38
2022-08-01T23:36:58.371Z,99916.95
2022-08-01T23:39:58.625Z,99917.30
2022-08-01T23:42:33.225Z,99921.46
2022-08-01T23:46:02.421Z,99924.56
2022-08-01T23:48:33.156Z,99925.61
2022-08-01T23:51:03.309Z,99924.34
2022-08-01T23:54:25.125Z,99926.54
2022-08-01T23:57:28.479Z,99926.36
